Time;durP1;ratioP1;P1;durP2;ratioP2;P2;SDS_P1;SDS_P2;PMS_P1;PMS_P2;Temp;Humidity;BMP_temperature;BMP_pressure;BME280_temperature;BME280_humidity;BME280_pressure;Samples;Min_cycle;Max_cycle;Signal;HPM_P1;HPM_P2
2024/02/29 00:00:37;;;;;;;3.50;2.40;;;21.00;53.10;;;;;;5077183;28;20028;-65
2024/02/29 00:03:03;;;;;;;4.40;2.50;;;21.00;53.10;;;;;;5077249;28;20039;-65
2024/02/29 00:05:29;;;;;;;4.57;2.58;;;21.00;53.10;;;;;;5078830;28;20028;-65
2024/02/29 00:07:54;;;;;;;3.53;2.45;;;20.90;53.10;;;;;;5077877;28;20032;-65
2024/02/29 00:10:20;;;;;;;2.95;1.88;;;21.00;53.10;;;;;;5078680;28;20035;-66
2024/02/29 00:12:46;;;;;;;3.97;2.40;;;21.00;53.10;;;;;;5078203;28;20039;-66
2024/02/29 00:15:12;;;;;;;4.28;2.20;;;21.00;53.10;;;;;;5061349;28;20025;-65
2024/02/29 00:17:37;;;;;;;4.00;2.33;;;21.00;53.10;;;;;;5079760;28;20064;-66
2024/02/29 00:20:08;;;;;;;3.58;2.35;;;21.00;53.10;;;;;;5077865;28;20460;-66
2024/02/29 00:22:34;;;;;;;3.28;2.20;;;20.90;53.10;;;;;;5061034;28;20203;-66
2024/02/29 00:25:00;;;;;;;4.20;2.60;;;20.90;53.10;;;;;;5080838;28;20111;-66
2024/02/29 00:27:26;;;;;;;3.22;2.13;;;20.90;53.10;;;;;;5083145;28;20499;-65
2024/02/29 00:29:51;;;;;;;3.63;2.33;;;20.90;53.40;;;;;;5084277;28;20017;-66
2024/02/29 00:32:17;;;;;;;3.58;2.20;;;20.90;53.10;;;;;;5084199;28;20020;-66
2024/02/29 00:34:43;;;;;;;3.58;2.40;;;20.90;53.10;;;;;;5082706;28;20369;-64
2024/02/29 00:37:09;;;;;;;4.05;2.30;;;20.80;53.00;;;;;;5083216;28;20389;-64
2024/02/29 00:39:34;;;;;;;4.63;2.20;;;20.90;53.10;;;;;;5085512;28;20082;-64
2024/02/29 00:42:00;;;;;;;3.72;2.40;;;20.80;53.00;;;;;;5086231;28;20024;-64
2024/02/29 00:44:26;;;;;;;3.97;2.50;;;20.80;53.00;;;;;;5082607;28;20712;-65
2024/02/29 00:46:51;;;;;;;3.88;2.10;;;20.80;53.10;;;;;;5084546;28;20059;-65
2024/02/29 00:49:17;;;;;;;3.47;2.25;;;20.80;53.10;;;;;;5083093;28;20067;-65
2024/02/29 00:51:43;;;;;;;3.58;2.30;;;20.80;53.10;;;;;;5084934;28;20032;-65
2024/02/29 00:54:08;;;;;;;4.90;2.42;;;20.80;53.10;;;;;;5085747;28;20039;-65
2024/02/29 00:56:34;;;;;;;3.67;2.30;;;20.80;53.10;;;;;;5083330;28;20039;-64
2024/02/29 00:59:00;;;;;;;3.45;2.28;;;20.80;53.10;;;;;;5084909;28;20107;-65
2024/02/29 01:01:25;;;;;;;2.97;2.05;;;20.80;53.10;;;;;;5082709;28;20037;-64
2024/02/29 01:03:51;;;;;;;4.28;2.50;;;20.70;53.00;;;;;;5082074;28;20032;-64
2024/02/29 01:06:16;;;;;;;3.25;2.10;;;20.70;53.00;;;;;;5085190;28;20104;-64
2024/02/29 01:08:42;;;;;;;3.83;2.42;;;20.70;53.10;;;;;;5084119;28;20081;-65
2024/02/29 01:11:08;;;;;;;3.75;2.10;;;20.70;53.00;;;;;;5083962;28;20102;-65
2024/02/29 01:13:33;;;;;;;3.67;2.25;;;20.70;53.00;;;;;;5086087;28;20106;-64
2024/02/29 01:15:59;;;;;;;4.13;2.50;;;20.70;53.00;;;;;;5084779;28;20039;-65
2024/02/29 01:18:24;;;;;;;3.50;2.35;;;20.70;53.00;;;;;;5084346;28;20451;-65
2024/02/29 01:20:50;;;;;;;3.38;2.28;;;20.70;53.00;;;;;;5085000;28;20116;-65
2024/02/29 01:23:16;;;;;;;3.40;2.30;;;20.70;53.00;;;;;;5084891;28;20079;-64
2024/02/29 01:25:41;;;;;;;4.03;2.30;;;20.70;53.10;;;;;;5084748;28;20508;-64
2024/02/29 01:28:07;;;;;;;3.65;2.45;;;20.70;53.00;;;;;;5083129;28;20028;-65
2024/02/29 01:30:33;;;;;;;3.63;2.17;;;20.70;53.10;;;;;;5082093;28;20078;-64
2024/02/29 01:32:58;;;;;;;3.60;2.20;;;20.70;53.00;;;;;;5101164;28;20032;-62
2024/02/29 01:35:24;;;;;;;3.45;2.13;;;20.60;53.00;;;;;;5084216;28;20032;-63
2024/02/29 01:37:50;;;;;;;2.72;1.90;;;20.60;53.00;;;;;;5083936;28;20064;-64
2024/02/29 01:40:18;;;;;;;3.25;2.17;;;20.60;53.00;;;;;;5079002;28;20141;-63
2024/02/29 01:42:44;;;;;;;4.55;2.50;;;20.60;53.00;;;;;;5082223;28;20444;-63
2024/02/29 01:45:11;;;;;;;3.70;2.33;;;20.60;53.00;;;;;;5083845;28;20090;-63
2024/02/29 01:47:37;;;;;;;3.00;2.20;;;20.60;53.00;;;;;;5082824;28;20033;-64
2024/02/29 01:50:07;;;;;;;4.03;2.50;;;20.60;53.00;;;;;;5078162;28;20102;-62
2024/02/29 01:52:33;;;;;;;3.05;2.10;;;20.60;53.00;;;;;;5080475;28;20028;-63
2024/02/29 01:55:02;;;;;;;3.00;2.03;;;20.60;53.00;;;;;;5082459;28;20032;-63
2024/02/29 01:57:29;;;;;;;3.47;2.40;;;20.60;53.00;;;;;;5082629;28;20123;-63
2024/02/29 01:59:54;;;;;;;3.47;2.28;;;20.60;53.00;;;;;;5079410;28;20028;-63
2024/02/29 02:02:20;;;;;;;3.00;2.28;;;20.60;53.00;;;;;;5081176;28;20034;-63
2024/02/29 02:04:46;;;;;;;3.00;2.00;;;20.60;53.10;;;;;;5077300;28;20542;-63
2024/02/29 02:07:11;;;;;;;4.07;2.40;;;20.50;53.00;;;;;;5079502;28;20570;-63
2024/02/29 02:09:41;;;;;;;3.63;2.55;;;20.50;53.00;;;;;;5082614;28;20074;-63
2024/02/29 02:12:10;;;;;;;4.05;2.42;;;20.50;53.00;;;;;;5083265;28;20025;-63
2024/02/29 02:14:37;;;;;;;3.92;2.13;;;20.50;53.00;;;;;;5094178;28;20047;-63
2024/02/29 02:17:03;;;;;;;3.67;2.20;;;20.50;53.00;;;;;;5080137;28;20051;-63
2024/02/29 02:19:28;;;;;;;3.38;2.33;;;20.50;53.00;;;;;;5078904;28;20575;-63
2024/02/29 02:21:54;;;;;;;3.25;2.28;;;20.50;53.00;;;;;;5079357;28;20472;-63
2024/02/29 02:24:24;;;;;;;4.10;2.30;;;20.50;53.00;;;;;;5080947;28;20028;-63
2024/02/29 02:26:49;;;;;;;;;;;20.50;53.00;;;;;;5081120;28;20393;-63
2024/02/29 02:29:15;;;;;;;3.40;2.33;;;20.50;53.00;;;;;;5081290;28;19970;-63
2024/02/29 02:31:41;;;;;;;3.60;2.13;;;20.50;53.00;;;;;;5081315;28;20020;-63
2024/02/29 02:34:06;;;;;;;3.15;2.17;;;20.50;53.00;;;;;;5079788;28;20044;-63
2024/02/29 02:36:32;;;;;;;3.28;2.20;;;20.40;53.00;;;;;;5076745;28;20028;-63
2024/02/29 02:38:57;;;;;;;3.35;2.40;;;20.50;53.00;;;;;;5080632;28;20032;-63
2024/02/29 02:41:23;;;;;;;4.22;2.40;;;20.40;52.90;;;;;;5081200;28;20036;-63
2024/02/29 02:43:49;;;;;;;3.28;2.20;;;20.40;53.00;;;;;;5079653;28;20393;-66
2024/02/29 02:46:16;;;;;;;3.00;2.17;;;20.40;52.90;;;;;;5080029;28;20020;-65
2024/02/29 02:48:42;;;;;;;3.38;2.25;;;20.40;53.00;;;;;;5080323;28;20029;-65
2024/02/29 02:51:07;;;;;;;4.00;2.55;;;20.40;53.00;;;;;;5078221;28;20030;-65
2024/02/29 02:53:33;;;;;;;2.92;2.03;;;20.40;53.00;;;;;;5070406;28;20106;-65
2024/02/29 02:55:58;;;;;;;3.35;2.20;;;20.40;53.00;;;;;;5079002;28;20400;-65
2024/02/29 02:58:24;;;;;;;3.60;2.20;;;20.40;53.00;;;;;;5061928;28;20024;-64
2024/02/29 03:00:50;;;;;;;3.05;1.98;;;20.40;53.00;;;;;;5065359;28;20031;-64
2024/02/29 03:03:15;;;;;;;2.72;1.85;;;20.40;53.00;;;;;;5079899;28;20105;-64
2024/02/29 03:05:41;;;;;;;3.30;2.30;;;20.40;53.00;;;;;;5077885;28;20090;-65
2024/02/29 03:08:07;;;;;;;4.20;2.20;;;20.40;53.00;;;;;;5080842;28;20027;-64
2024/02/29 03:10:33;;;;;;;3.55;2.20;;;20.40;53.00;;;;;;5078903;28;20020;-65
2024/02/29 03:12:59;;;;;;;3.58;2.20;;;20.30;52.90;;;;;;5078284;28;20131;-64
2024/02/29 03:15:25;;;;;;;4.05;2.38;;;20.30;52.90;;;;;;5077619;28;20102;-64
2024/02/29 03:17:55;;;;;;;4.00;2.25;;;20.40;53.00;;;;;;5079620;28;20021;-65
2024/02/29 03:20:22;;;;;;;3.58;2.30;;;20.30;52.90;;;;;;5081130;28;20035;-65
2024/02/29 03:22:47;;;;;;;2.97;2.05;;;20.30;52.90;;;;;;5061012;28;20075;-65
2024/02/29 03:25:13;;;;;;;3.63;2.17;;;20.30;52.90;;;;;;5080309;28;20122;-65
2024/02/29 03:27:39;;;;;;;2.80;1.92;;;20.30;52.90;;;;;;5079099;28;20020;-64
2024/02/29 03:30:05;;;;;;;2.70;1.98;;;20.30;52.90;;;;;;5078880;28;20139;-64
2024/02/29 03:32:30;;;;;;;3.67;2.58;;;20.30;52.90;;;;;;5077926;28;20031;-64
2024/02/29 03:34:56;;;;;;;3.10;2.10;;;20.30;52.90;;;;;;5076192;28;20028;-64
2024/02/29 03:37:22;;;;;;;4.18;2.00;;;20.30;52.90;;;;;;5079238;28;20025;-65
2024/02/29 03:39:47;;;;;;;2.80;2.20;;;20.30;52.90;;;;;;5079349;28;20468;-65
2024/02/29 03:42:13;;;;;;;3.13;2.15;;;20.30;52.90;;;;;;5079216;28;20082;-64
2024/02/29 03:44:43;;;;;;;3.70;2.25;;;20.30;52.90;;;;;;5077881;28;20036;-65
2024/02/29 03:47:10;;;;;;;3.10;1.90;;;20.20;52.90;;;;;;5060889;28;20467;-64
2024/02/29 03:49:35;;;;;;;3.25;2.28;;;20.20;52.90;;;;;;5078167;28;20116;-64
2024/02/29 03:52:02;;;;;;;3.63;2.35;;;20.20;52.90;;;;;;5076656;28;20131;-64
2024/02/29 03:54:28;;;;;;;2.95;2.15;;;20.20;52.90;;;;;;5079747;28;20454;-65
2024/02/29 03:56:54;;;;;;;3.03;1.98;;;20.20;52.90;;;;;;5080027;28;20052;-65
2024/02/29 03:59:20;;;;;;;3.03;2.05;;;20.20;52.90;;;;;;5078585;28;20017;-65
2024/02/29 04:01:49;;;;;;;3.20;2.03;;;20.20;52.90;;;;;;5078716;28;20391;-65
2024/02/29 04:04:17;;;;;;;;;;;20.20;52.90;;;;;;5079530;28;20025;-64
2024/02/29 04:06:42;;;;;;;3.33;2.20;;;20.20;52.90;;;;;;5077517;28;19967;-65
2024/02/29 04:09:09;;;;;;;3.75;2.17;;;20.20;52.90;;;;;;5079664;28;20029;-65
2024/02/29 04:11:36;;;;;;;2.97;2.20;;;20.20;52.90;;;;;;5079480;28;20438;-65
2024/02/29 04:14:03;;;;;;;3.55;2.10;;;20.20;52.90;;;;;;5079910;28;20500;-65
2024/02/29 04:16:29;;;;;;;3.08;2.13;;;20.20;52.90;;;;;;5076663;28;20028;-65
2024/02/29 04:18:55;;;;;;;3.42;2.28;;;20.20;53.00;;;;;;5077639;28;20111;-65
2024/02/29 04:21:20;;;;;;;3.60;2.33;;;20.20;52.90;;;;;;5076487;28;20464;-65
2024/02/29 04:23:46;;;;;;;3.20;2.03;;;20.20;52.90;;;;;;5077813;28;20029;-65
2024/02/29 04:26:12;;;;;;;3.15;2.00;;;20.20;52.90;;;;;;5078264;28;20491;-65
2024/02/29 04:28:37;;;;;;;2.90;2.08;;;20.20;53.00;;;;;;5081050;28;20090;-64
2024/02/29 04:31:05;;;;;;;2.80;1.90;;;20.20;52.90;;;;;;5081435;28;20027;-64
2024/02/29 04:33:30;;;;;;;3.08;2.03;;;20.20;52.90;;;;;;5076042;28;20016;-64
2024/02/29 04:35:56;;;;;;;2.70;1.90;;;20.10;52.90;;;;;;5078602;28;20040;-64
2024/02/29 04:38:22;;;;;;;3.47;2.13;;;20.10;52.90;;;;;;5079054;28;20452;-64
2024/02/29 04:40:48;;;;;;;2.92;2.03;;;20.20;53.00;;;;;;5060356;28;20035;-65
2024/02/29 04:43:16;;;;;;;3.13;2.00;;;20.20;52.90;;;;;;5077846;28;20042;-64
2024/02/29 04:45:42;;;;;;;3.10;2.08;;;20.10;52.90;;;;;;5078693;28;20485;-65
2024/02/29 04:48:08;;;;;;;3.00;2.10;;;20.10;52.90;;;;;;5078049;28;20055;-65
2024/02/29 04:50:33;;;;;;;2.92;1.90;;;20.10;52.90;;;;;;5077640;28;20086;-65
2024/02/29 04:52:59;;;;;;;3.22;2.10;;;20.20;52.90;;;;;;5079403;28;20025;-64
2024/02/29 04:55:24;;;;;;;3.15;2.05;;;20.10;52.90;;;;;;5079106;28;20472;-65
2024/02/29 04:57:50;;;;;;;2.33;1.73;;;20.10;52.90;;;;;;5079218;28;20175;-64
2024/02/29 05:00:16;;;;;;;2.70;1.80;;;20.10;52.90;;;;;;5077165;28;20435;-65
2024/02/29 05:02:42;;;;;;;3.08;2.03;;;20.10;52.90;;;;;;5079371;28;20029;-65
2024/02/29 05:05:09;;;;;;;2.58;1.73;;;20.10;52.90;;;;;;5079219;28;20024;-64
2024/02/29 05:07:35;;;;;;;2.90;2.10;;;20.10;52.90;;;;;;5075535;28;20096;-63
2024/02/29 05:10:01;;;;;;;2.88;2.00;;;20.10;52.90;;;;;;5077964;28;20422;-63
2024/02/29 05:12:27;;;;;;;2.90;1.70;;;20.10;53.00;;;;;;5075183;28;20028;-63
2024/02/29 05:14:53;;;;;;;2.28;1.63;;;20.10;53.00;;;;;;5083094;28;20031;-63
2024/02/29 05:17:19;;;;;;;2.92;1.85;;;20.10;53.00;;;;;;5082688;28;20384;-63
2024/02/29 05:19:44;;;;;;;2.85;1.88;;;20.10;53.10;;;;;;5083063;28;20040;-63
2024/02/29 05:22:10;;;;;;;2.83;2.00;;;20.10;53.00;;;;;;5080292;28;20077;-64
2024/02/29 05:24:35;;;;;;;2.85;2.13;;;20.10;53.00;;;;;;5079827;28;20036;-63
2024/02/29 05:27:01;;;;;;;2.88;1.80;;;20.10;53.00;;;;;;5080817;28;20032;-63
2024/02/29 05:29:28;;;;;;;2.78;1.90;;;20.10;53.00;;;;;;5082587;28;20544;-63
2024/02/29 05:31:54;;;;;;;2.30;1.70;;;20.10;53.00;;;;;;5081075;28;20108;-63
2024/02/29 05:34:20;;;;;;;3.10;1.95;;;20.10;53.00;;;;;;5080645;28;20110;-63
2024/02/29 05:36:47;;;;;;;2.58;1.75;;;20.10;53.00;;;;;;5079944;28;20093;-62
2024/02/29 05:39:13;;;;;;;2.72;1.80;;;20.10;53.00;;;;;;5079882;28;20029;-63
2024/02/29 05:41:39;;;;;;;2.33;1.60;;;20.10;53.00;;;;;;5079350;28;20097;-63
2024/02/29 05:44:04;;;;;;;2.65;1.60;;;20.10;53.00;;;;;;5081490;28;20063;-63
2024/02/29 05:46:30;;;;;;;2.63;1.85;;;20.00;53.00;;;;;;5079870;28;20025;-63
2024/02/29 05:48:57;;;;;;;3.20;1.90;;;20.00;53.00;;;;;;5081721;28;20392;-63
2024/02/29 05:51:23;;;;;;;3.10;1.92;;;20.00;53.00;;;;;;5078889;28;20027;-63
2024/02/29 05:53:48;;;;;;;2.60;1.70;;;20.00;53.00;;;;;;5081499;28;20025;-63
2024/02/29 05:56:14;;;;;;;2.65;1.90;;;20.10;53.10;;;;;;5081735;28;20075;-63
2024/02/29 05:58:40;;;;;;;3.13;2.10;;;20.00;53.00;;;;;;5082142;28;20467;-63
2024/02/29 06:01:06;;;;;;;2.95;1.70;;;20.00;53.00;;;;;;5081136;28;20032;-63
2024/02/29 06:03:32;;;;;;;2.72;1.85;;;20.00;53.10;;;;;;5078802;28;20218;-63
2024/02/29 06:06:00;;;;;;;3.45;1.90;;;20.00;53.10;;;;;;5075715;28;20111;-63
2024/02/29 06:08:25;;;;;;;4.13;2.30;;;20.00;53.20;;;;;;5080411;28;20062;-64
2024/02/29 06:10:51;;;;;;;5.30;2.25;;;20.00;53.30;;;;;;5080538;28;20028;-63
2024/02/29 06:13:17;;;;;;;4.25;2.33;;;20.00;53.40;;;;;;5081161;28;20476;-65
2024/02/29 06:15:42;;;;;;;3.95;2.50;;;20.00;53.50;;;;;;5079705;28;20032;-63
2024/02/29 06:18:13;;;;;;;5.30;2.90;;;20.00;53.60;;;;;;5079195;28;20059;-64
2024/02/29 06:20:39;;;;;;;5.47;3.03;;;20.00;53.60;;;;;;5081516;28;20020;-63
2024/02/29 06:23:05;;;;;;;4.95;2.90;;;20.00;53.70;;;;;;5078951;28;20546;-63
2024/02/29 06:25:31;;;;;;;5.60;2.78;;;20.00;53.70;;;;;;5080855;28;20554;-64
2024/02/29 06:27:57;;;;;;;5.22;2.97;;;20.00;53.70;;;;;;5080361;28;20381;-64
2024/02/29 06:30:31;;;;;;;5.07;3.22;;;20.00;53.80;;;;;;5078682;28;20035;-64
2024/02/29 06:33:00;;;;;;;4.90;3.22;;;20.00;53.70;;;;;;5080190;28;20134;-63
2024/02/29 06:35:26;;;;;;;5.40;2.78;;;20.00;53.80;;;;;;5080021;28;20500;-63
2024/02/29 06:37:51;;;;;;;4.95;2.67;;;20.00;53.90;;;;;;5078992;28;20062;-63
2024/02/29 06:40:17;;;;;;;3.65;2.28;;;20.00;53.80;;;;;;5081287;28;20133;-64
2024/02/29 06:42:44;;;;;;;4.32;2.05;;;20.00;53.70;;;;;;5081400;28;20059;-63
2024/02/29 06:45:10;;;;;;;3.75;2.20;;;20.00;53.70;;;;;;5061513;28;20193;-63
2024/02/29 06:47:38;;;;;;;3.58;2.10;;;20.00;53.70;;;;;;5080477;28;20027;-63
2024/02/29 06:50:05;;;;;;;4.07;2.03;;;20.00;53.70;;;;;;5079102;28;20055;-63
2024/02/29 06:52:31;;;;;;;4.10;2.30;;;20.00;53.70;;;;;;5076217;28;20052;-62
2024/02/29 06:54:56;;;;;;;5.88;2.35;;;20.00;53.70;;;;;;5079269;28;20505;-63
2024/02/29 06:57:22;;;;;;;4.15;2.08;;;20.00;53.70;;;;;;5079852;28;20039;-62
2024/02/29 06:59:48;;;;;;;4.35;2.20;;;20.00;53.70;;;;;;5078368;28;20034;-62
2024/02/29 07:02:14;;;;;;;4.10;2.03;;;20.00;53.70;;;;;;5079645;28;20098;-62
2024/02/29 07:04:39;;;;;;;3.72;2.10;;;19.90;53.60;;;;;;5080887;28;20452;-64
2024/02/29 07:07:07;;;;;;;4.47;2.20;;;20.00;53.70;;;;;;5078232;28;20026;-63
2024/02/29 07:09:33;;;;;;;3.90;2.20;;;20.00;53.70;;;;;;5078617;28;20025;-63
2024/02/29 07:12:00;;;;;;;3.65;2.00;;;20.00;53.70;;;;;;5078503;28;20035;-64
2024/02/29 07:14:25;;;;;;;3.88;1.90;;;19.90;53.60;;;;;;5078929;28;20486;-64
2024/02/29 07:16:51;;;;;;;4.10;2.20;;;19.90;53.60;;;;;;5078890;28;20028;-63
2024/02/29 07:19:16;;;;;;;4.03;2.22;;;19.90;53.60;;;;;;5079484;28;20121;-63
2024/02/29 07:21:43;;;;;;;3.08;1.80;;;19.90;53.60;;;;;;5077118;28;20043;-63
2024/02/29 07:24:08;;;;;;;3.58;2.08;;;20.00;53.70;;;;;;5078332;28;20480;-63
2024/02/29 07:26:43;;;;;;;3.15;2.05;;;19.90;53.60;;;;;;5079045;28;20023;-63
2024/02/29 07:29:09;;;;;;;3.65;1.98;;;19.90;53.60;;;;;;5078120;28;20021;-63
2024/02/29 07:31:34;;;;;;;3.30;2.10;;;19.90;53.60;;;;;;5080831;28;20597;-63
2024/02/29 07:34:00;;;;;;;3.28;2.10;;;19.90;53.60;;;;;;5076837;28;20082;-66
2024/02/29 07:36:26;;;;;;;3.58;2.15;;;19.90;53.60;;;;;;5079703;28;20028;-65
2024/02/29 07:38:51;;;;;;;4.00;2.15;;;19.90;53.60;;;;;;5077631;28;20020;-65
2024/02/29 07:41:17;;;;;;;4.93;2.30;;;19.90;53.60;;;;;;5079127;28;20059;-65
2024/02/29 07:43:43;;;;;;;3.88;2.42;;;19.90;53.60;;;;;;5080090;28;20083;-65
2024/02/29 07:46:09;;;;;;;4.97;2.25;;;19.90;53.60;;;;;;5077567;28;20107;-65
2024/02/29 07:48:34;;;;;;;3.75;2.30;;;19.90;53.60;;;;;;5077927;28;20020;-65
2024/02/29 07:51:00;;;;;;;3.38;2.00;;;19.90;53.60;;;;;;5080935;28;20503;-65
2024/02/29 07:53:26;;;;;;;3.17;2.10;;;19.90;53.60;;;;;;5079906;28;20043;-65
2024/02/29 07:55:52;;;;;;;4.38;2.20;;;19.90;53.60;;;;;;5079795;28;20032;-65
2024/02/29 07:58:18;;;;;;;4.25;2.30;;;19.90;53.60;;;;;;5079866;28;20078;-65
2024/02/29 08:00:44;;;;;;;3.00;2.08;;;19.90;53.60;;;;;;5060750;28;20028;-65
2024/02/29 08:03:09;;;;;;;2.95;2.13;;;19.90;53.60;;;;;;5076936;28;20032;-65
2024/02/29 08:05:35;;;;;;;4.10;2.15;;;19.90;53.60;;;;;;5078641;28;20033;-65
2024/02/29 08:08:00;;;;;;;3.58;2.30;;;19.90;53.60;;;;;;5078440;28;20492;-65
2024/02/29 08:10:26;;;;;;;3.92;2.20;;;19.90;53.60;;;;;;5079555;28;20512;-65
2024/02/29 08:12:52;;;;;;;3.00;1.90;;;19.90;53.60;;;;;;5078634;28;20380;-65
2024/02/29 08:15:17;;;;;;;3.25;1.73;;;19.90;53.60;;;;;;5079398;28;20067;-65
2024/02/29 08:17:43;;;;;;;3.58;1.98;;;19.90;53.60;;;;;;5078191;28;20029;-65
2024/02/29 08:20:10;;;;;;;4.22;2.30;;;19.90;53.60;;;;;;5076436;28;20936;-66
2024/02/29 08:22:36;;;;;;;3.30;1.90;;;19.90;53.60;;;;;;5076199;28;20027;-65
2024/02/29 08:25:02;;;;;;;2.78;1.90;;;19.90;53.60;;;;;;5078159;28;20032;-65
2024/02/29 08:27:27;;;;;;;4.03;2.20;;;19.90;53.50;;;;;;5078889;28;20024;-65
2024/02/29 08:29:53;;;;;;;3.40;2.03;;;19.90;53.50;;;;;;5080998;28;20082;-65
2024/02/29 08:32:19;;;;;;;3.45;2.28;;;19.90;53.50;;;;;;5078196;28;20016;-65
2024/02/29 08:34:44;;;;;;;3.42;1.92;;;19.90;53.50;;;;;;5092962;28;20039;-63
2024/02/29 08:37:10;;;;;;;3.40;2.00;;;19.90;53.60;;;;;;5076733;28;20603;-64
2024/02/29 08:39:38;;;;;;;4.03;2.10;;;19.90;53.50;;;;;;5077276;28;20032;-63
2024/02/29 08:42:03;;;;;;;3.38;2.20;;;19.90;53.50;;;;;;5078161;28;20028;-63
2024/02/29 08:44:29;;;;;;;3.30;1.95;;;19.90;53.50;;;;;;5079154;28;20082;-63
2024/02/29 08:46:55;;;;;;;4.13;2.17;;;19.90;53.50;;;;;;5079490;28;20435;-63
2024/02/29 08:49:21;;;;;;;3.65;2.10;;;19.90;53.50;;;;;;5083479;28;20033;-63
2024/02/29 08:51:47;;;;;;;3.55;2.20;;;19.90;53.50;;;;;;5082802;28;20024;-63
2024/02/29 08:54:14;;;;;;;3.70;2.40;;;19.80;53.50;;;;;;5078763;28;20493;-64
2024/02/29 08:56:39;;;;;;;4.20;2.00;;;19.80;53.50;;;;;;5082139;28;20589;-64
2024/02/29 08:59:05;;;;;;;3.60;1.98;;;19.80;53.50;;;;;;5083209;28;20056;-63
2024/02/29 09:01:31;;;;;;;4.40;2.22;;;19.80;53.50;;;;;;5079823;28;20034;-63
2024/02/29 09:03:56;;;;;;;4.22;2.00;;;19.90;53.50;;;;;;5082590;28;20040;-63
2024/02/29 09:06:22;;;;;;;3.72;2.40;;;19.90;53.50;;;;;;5080372;28;21036;-63
2024/02/29 09:08:48;;;;;;;3.38;2.20;;;19.80;53.50;;;;;;5081472;28;20103;-63
2024/02/29 09:11:13;;;;;;;3.42;2.17;;;19.80;53.50;;;;;;5084313;28;20024;-63
2024/02/29 09:13:39;;;;;;;3.35;1.90;;;19.80;53.40;;;;;;5083813;28;20100;-64
2024/02/29 09:16:07;;;;;;;3.63;2.40;;;19.80;53.50;;;;;;5082569;28;20036;-64
2024/02/29 09:18:33;;;;;;;3.13;2.20;;;19.80;53.50;;;;;;5082472;28;20117;-64
2024/02/29 09:20:59;;;;;;;3.65;2.28;;;19.80;53.50;;;;;;5080686;28;20457;-63
2024/02/29 09:23:26;;;;;;;4.15;2.10;;;19.80;53.40;;;;;;5080968;28;20047;-64
2024/02/29 09:25:51;;;;;;;3.55;2.20;;;19.80;53.90;;;;;;5082261;28;20113;-63
2024/02/29 09:28:17;;;;;;;3.42;1.85;;;19.80;53.40;;;;;;5063455;28;20044;-63
2024/02/29 09:30:42;;;;;;;3.55;2.20;;;19.80;53.40;;;;;;5064046;28;20397;-64
2024/02/29 09:33:08;;;;;;;3.15;2.10;;;19.80;53.40;;;;;;5080832;28;20016;-63
2024/02/29 09:35:34;;;;;;;3.47;2.00;;;19.80;53.40;;;;;;5082169;28;20023;-64
2024/02/29 09:37:59;;;;;;;3.47;2.20;;;19.80;53.90;;;;;;5078690;28;20067;-64
2024/02/29 09:40:25;;;;;;;3.70;2.30;;;19.80;53.50;;;;;;5080472;28;20464;-63
2024/02/29 09:42:51;;;;;;;3.92;2.20;;;19.80;53.40;;;;;;5081884;28;20032;-64
2024/02/29 09:45:20;;;;;;;4.03;2.47;;;19.80;53.50;;;;;;5080714;28;20574;-64
2024/02/29 09:47:47;;;;;;;3.58;2.20;;;19.80;53.40;;;;;;5083616;28;20262;-63
2024/02/29 09:50:12;;;;;;;3.75;2.08;;;19.80;54.00;;;;;;5082641;28;20016;-62
2024/02/29 09:52:38;;;;;;;3.60;2.25;;;19.80;53.40;;;;;;5080203;28;20086;-64
2024/02/29 09:55:09;;;;;;;3.50;2.20;;;19.80;53.40;;;;;;5081471;28;20033;-65
2024/02/29 09:57:34;;;;;;;3.55;2.40;;;19.80;53.40;;;;;;5082305;28;20473;-65
2024/02/29 10:00:02;;;;;;;4.18;2.38;;;19.80;53.50;;;;;;5079803;28;20032;-66
2024/02/29 10:02:28;;;;;;;3.58;2.00;;;19.80;53.40;;;;;;5082844;28;20047;-66
2024/02/29 10:04:53;;;;;;;3.10;2.10;;;19.80;53.40;;;;;;5081286;28;20036;-66
2024/02/29 10:07:19;;;;;;;3.90;2.15;;;19.80;53.40;;;;;;5079786;28;20027;-66
2024/02/29 10:09:45;;;;;;;2.80;1.95;;;19.80;53.40;;;;;;5081246;28;20022;-66
2024/02/29 10:12:18;;;;;;;2.90;1.90;;;19.80;53.40;;;;;;5078670;28;20127;-65
2024/02/29 10:14:45;;;;;;;3.60;2.22;;;19.80;53.40;;;;;;5081513;28;20051;-65
2024/02/29 10:17:11;;;;;;;3.35;2.13;;;19.80;53.40;;;;;;5081004;28;20372;-66
2024/02/29 10:19:40;;;;;;;2.85;1.88;;;19.80;53.40;;;;;;5081684;28;20048;-66
2024/02/29 10:22:06;;;;;;;;;;;19.80;53.40;;;;;;5080751;28;20115;-66
2024/02/29 10:24:32;;;;;;;3.63;2.40;;;19.80;53.40;;;;;;5079785;28;19948;-65
2024/02/29 10:27:02;;;;;;;3.28;2.17;;;19.80;53.40;;;;;;5079926;28;20506;-66
2024/02/29 10:29:29;;;;;;;;;;;19.80;53.40;;;;;;5081543;28;20028;-66
2024/02/29 10:31:57;;;;;;;4.10;2.20;;;19.80;53.40;;;;;;5083779;28;20435;-65
2024/02/29 10:34:23;;;;;;;3.63;2.20;;;19.80;53.40;;;;;;5081298;28;20086;-65
2024/02/29 10:36:48;;;;;;;4.43;2.65;;;19.80;53.40;;;;;;5082174;28;20020;-65
2024/02/29 10:39:14;;;;;;;3.65;2.10;;;19.80;53.40;;;;;;5079929;28;20079;-65
2024/02/29 10:41:48;;;;;;;3.63;2.28;;;19.80;53.40;;;;;;5081791;28;20392;-65
2024/02/29 10:44:18;;;;;;;4.00;2.42;;;19.80;53.40;;;;;;5081016;28;20086;-65
2024/02/29 10:46:47;;;;;;;3.47;2.42;;;19.80;53.40;;;;;;5080313;28;20028;-66
2024/02/29 10:49:32;;;;;;;3.55;2.33;;;19.80;53.40;;;;;;5081003;28;20032;-66
2024/02/29 10:52:07;;;;;;;3.15;2.20;;;19.70;53.90;;;;;;5078382;28;20036;-66
2024/02/29 10:54:44;;;;;;;3.95;2.20;;;19.80;53.40;;;;;;5078011;28;20028;-65
2024/02/29 10:57:15;;;;;;;3.22;2.10;;;19.70;53.30;;;;;;5079391;28;20040;-64
2024/02/29 10:59:46;;;;;;;3.17;1.95;;;19.70;53.30;;;;;;5080536;28;20028;-63
2024/02/29 11:02:13;;;;;;;3.22;2.00;;;19.70;53.30;;;;;;5079976;28;20020;-62
2024/02/29 11:04:39;;;;;;;4.07;2.45;;;19.70;53.30;;;;;;5079164;28;20024;-64
2024/02/29 11:07:06;;;;;;;3.42;2.10;;;19.80;53.40;;;;;;5081144;28;20016;-63
2024/02/29 11:09:32;;;;;;;3.13;2.20;;;19.70;53.80;;;;;;5078829;28;20036;-64
2024/02/29 11:12:11;;;;;;;3.40;2.20;;;19.80;53.40;;;;;;5077950;28;20009;-63
2024/02/29 11:14:37;;;;;;;3.67;2.17;;;19.70;53.30;;;;;;5078083;28;20162;-63
2024/02/29 11:17:06;;;;;;;3.83;2.50;;;19.80;53.40;;;;;;5078827;28;20066;-63
2024/02/29 11:19:32;;;;;;;3.42;2.33;;;19.80;53.40;;;;;;5079613;28;20036;-63
2024/02/29 11:22:11;;;;;;;4.22;2.40;;;19.70;53.30;;;;;;5078404;28;20108;-63
2024/02/29 11:24:39;;;;;;;;;;;19.80;53.40;;;;;;5078724;28;20031;-63
2024/02/29 11:27:11;;;;;;;4.18;2.30;;;19.80;53.40;;;;;;5079949;28;19908;-64
2024/02/29 11:29:37;;;;;;;4.88;2.80;;;19.80;53.40;;;;;;5076627;28;20020;-63
2024/02/29 11:32:04;;;;;;;4.10;2.70;;;19.80;53.40;;;;;;5080318;28;20031;-63
2024/02/29 11:34:30;;;;;;;3.80;2.47;;;19.70;53.30;;;;;;5061440;28;20037;-64
2024/02/29 11:36:56;;;;;;;3.60;2.33;;;19.80;53.30;;;;;;5079100;28;20093;-63
2024/02/29 11:39:22;;;;;;;4.75;2.25;;;19.70;53.30;;;;;;5078218;28;20330;-63
2024/02/29 11:42:08;;;;;;;4.45;2.33;;;19.70;53.30;;;;;;5079146;28;20148;-64
2024/02/29 11:44:34;;;;;;;3.47;2.30;;;19.70;53.30;;;;;;5076854;28;20095;-63
2024/02/29 11:47:00;;;;;;;3.75;2.35;;;19.80;53.30;;;;;;5077797;28;20060;-64
2024/02/29 11:49:26;;;;;;;3.38;2.38;;;19.70;53.30;;;;;;5081408;28;20022;-63
2024/02/29 11:51:54;;;;;;;3.00;2.20;;;19.70;53.30;;;;;;5078814;28;20031;-63
2024/02/29 11:54:20;;;;;;;3.20;2.33;;;19.70;53.20;;;;;;5076389;28;20031;-63
2024/02/29 11:56:46;;;;;;;3.47;2.25;;;19.80;53.30;;;;;;5079200;28;20024;-63
2024/02/29 11:59:15;;;;;;;3.30;2.20;;;19.70;53.20;;;;;;5078597;28;20023;-62
2024/02/29 12:01:42;;;;;;;4.00;2.60;;;19.70;53.20;;;;;;5079539;28;20502;-62
2024/02/29 12:04:08;;;;;;;3.65;2.33;;;19.70;53.20;;;;;;5076708;28;20702;-63
2024/02/29 12:06:35;;;;;;;3.42;2.30;;;19.70;53.20;;;;;;5078459;28;21031;-63
2024/02/29 12:09:01;;;;;;;3.30;2.42;;;19.70;53.20;;;;;;5077113;28;20016;-64
2024/02/29 12:11:28;;;;;;;3.90;2.60;;;19.70;53.20;;;;;;5078903;28;20481;-63
2024/02/29 12:13:55;;;;;;;3.65;2.47;;;19.80;53.20;;;;;;5078649;28;20037;-65
2024/02/29 12:16:20;;;;;;;3.80;2.55;;;19.70;53.20;;;;;;5081538;28;20032;-65
2024/02/29 12:18:46;;;;;;;3.33;2.47;;;19.70;53.20;;;;;;5079262;28;20221;-65
2024/02/29 12:21:12;;;;;;;4.53;3.10;;;19.80;53.20;;;;;;5078613;28;20028;-65
2024/02/29 12:23:40;;;;;;;5.18;3.30;;;19.70;53.10;;;;;;5077651;28;20025;-65
2024/02/29 12:26:14;;;;;;;4.88;3.10;;;19.80;53.20;;;;;;5076643;28;20028;-65
2024/02/29 12:28:40;;;;;;;4.68;3.30;;;19.70;53.10;;;;;;5079691;28;20039;-65
2024/02/29 12:31:07;;;;;;;4.20;2.90;;;19.70;53.10;;;;;;5079160;28;20028;-65
2024/02/29 12:33:42;;;;;;;5.35;3.38;;;19.70;53.10;;;;;;5059690;28;20111;-65
2024/02/29 12:36:12;;;;;;;4.75;3.15;;;19.70;53.10;;;;;;5080055;28;20414;-66
2024/02/29 12:38:40;;;;;;;4.68;3.33;;;19.70;53.10;;;;;;5060632;28;20990;-66
2024/02/29 12:41:06;;;;;;;4.60;3.17;;;19.70;53.10;;;;;;5075625;28;20477;-65
2024/02/29 12:43:33;;;;;;;4.68;3.10;;;19.80;53.10;;;;;;5078082;28;20047;-66